Triana, Alabama
Current Conditions -  °F | °C
As of 4:53 PM on Saturday 20 Dec 2014 (Local Time) from KHSV Reporting Station
Clear Clear  
Wind Chill:   Ceiling: Unl
Heat Index:   Visibility: 10mi
Dew Point:   Wind: 7mph
Humidity: 59%   Direction: 10°N
Pressure: 30.19"   Gusts: NA
Location:  34.6731°N, 86.8135°W
Report Text: KHSV 202253Z 01006KT 10SM CLR 08/01 A3019 RMK AO2 SLP224 T00830006
Loading
Personal Weather Stations






























Interactive Weather Map New forecast layout! Learn more

10-Day Weather Forecast

Advertisements
Track Severe Weather on mobile